createdAt,value
2023-10-23T00:02:12.876Z,11.78
2023-10-23T00:04:35.981Z,11.76
2023-10-23T00:06:57.888Z,11.72
2023-10-23T00:09:19.709Z,11.70
2023-10-23T00:11:41.544Z,11.66
2023-10-23T00:14:03.639Z,11.62
2023-10-23T00:16:25.568Z,11.59
2023-10-23T00:18:47.582Z,11.56
2023-10-23T00:21:09.654Z,11.50
2023-10-23T00:23:31.425Z,11.44
2023-10-23T00:25:53.162Z,11.39
2023-10-23T00:28:14.904Z,11.35
2023-10-23T00:30:37.511Z,11.31
2023-10-23T00:32:59.362Z,11.27
2023-10-23T00:35:21.199Z,11.24
2023-10-23T00:37:43.706Z,11.21
2023-10-23T00:40:06.888Z,11.20
2023-10-23T00:42:29.053Z,11.19
2023-10-23T00:44:52.460Z,11.18
2023-10-23T00:47:17.771Z,11.17
2023-10-23T00:49:40.229Z,11.14
2023-10-23T00:52:03.007Z,11.12
2023-10-23T00:54:25.834Z,11.07
2023-10-23T00:56:48.749Z,11.00
2023-10-23T00:59:11.416Z,10.95
2023-10-23T01:01:34.340Z,10.87
2023-10-23T01:03:56.110Z,10.85
2023-10-23T01:06:17.943Z,10.83
2023-10-23T01:08:40.741Z,10.82
2023-10-23T01:11:02.581Z,10.81
2023-10-23T01:13:26.640Z,10.78
2023-10-23T01:15:48.381Z,10.75
2023-10-23T01:18:10.194Z,10.71
2023-10-23T01:20:33.705Z,10.67
2023-10-23T01:22:59.628Z,10.62
2023-10-23T01:25:21.313Z,10.57
2023-10-23T01:27:44.078Z,10.53
2023-10-23T01:30:07.320Z,10.49
2023-10-23T01:32:29.819Z,10.44
2023-10-23T01:34:51.651Z,10.41
2023-10-23T01:37:13.393Z,10.40
2023-10-23T01:39:35.202Z,10.37
2023-10-23T01:41:56.952Z,10.36
2023-10-23T01:44:18.691Z,10.34
2023-10-23T01:46:40.468Z,10.31
2023-10-23T01:49:02.228Z,10.28
2023-10-23T01:51:23.984Z,10.25
2023-10-23T01:53:46.464Z,10.23
2023-10-23T01:56:09.568Z,10.21
2023-10-23T01:58:32.286Z,10.19
2023-10-23T02:00:54.088Z,10.15
2023-10-23T02:03:15.930Z,10.11
2023-10-23T02:05:37.749Z,10.10
2023-10-23T02:08:03.574Z,10.10
2023-10-23T02:10:25.416Z,10.06
2023-10-23T02:12:47.130Z,10.01
2023-10-23T02:15:11.389Z,9.96
2023-10-23T02:17:33.268Z,9.93
2023-10-23T02:19:55.113Z,9.94
2023-10-23T02:22:19.705Z,9.94
2023-10-23T02:24:42.257Z,9.94
2023-10-23T02:27:04.285Z,9.93
2023-10-23T02:29:27.551Z,9.93
2023-10-23T02:31:50.107Z,9.92
2023-10-23T02:34:12.163Z,9.90
2023-10-23T02:36:34.442Z,9.89
2023-10-23T02:38:56.308Z,9.88
2023-10-23T02:41:18.032Z,9.86
2023-10-23T02:43:39.696Z,9.85
2023-10-23T02:46:02.908Z,9.85
2023-10-23T02:48:24.750Z,9.86
2023-10-23T02:50:56.832Z,9.89
2023-10-23T02:53:18.559Z,9.88
2023-10-23T02:55:41.714Z,9.89
2023-10-23T02:58:03.443Z,9.89
2023-10-23T03:00:25.395Z,9.87
2023-10-23T03:02:47.219Z,9.86
2023-10-23T03:05:09.175Z,9.85
2023-10-23T03:07:30.920Z,9.81
2023-10-23T03:09:53.198Z,9.79
2023-10-23T03:12:14.973Z,9.77
2023-10-23T03:14:36.681Z,9.76
2023-10-23T03:16:59.036Z,9.74
2023-10-23T03:19:23.593Z,9.73
2023-10-23T03:21:45.279Z,9.74
2023-10-23T03:24:07.872Z,9.71
2023-10-23T03:26:30.056Z,9.70
2023-10-23T03:28:52.329Z,9.70
2023-10-23T03:31:14.019Z,9.69
2023-10-23T03:33:35.755Z,9.70
2023-10-23T03:35:57.727Z,9.70
2023-10-23T03:38:19.467Z,9.70
2023-10-23T03:40:41.145Z,9.70
2023-10-23T03:43:03.017Z,9.69
2023-10-23T03:45:24.828Z,9.70
2023-10-23T03:47:46.535Z,9.69
2023-10-23T03:50:08.796Z,9.69
2023-10-23T03:52:31.569Z,9.69
2023-10-23T03:54:53.264Z,9.67
2023-10-23T03:57:14.993Z,9.66
2023-10-23T03:59:37.759Z,9.64
2023-10-23T04:01:59.584Z,9.62
2023-10-23T04:04:21.422Z,9.62
2023-10-23T04:06:43.238Z,9.61
2023-10-23T04:09:04.962Z,9.63
2023-10-23T04:11:27.604Z,9.63
2023-10-23T04:13:49.578Z,9.62
2023-10-23T04:16:11.532Z,9.63
2023-10-23T04:18:33.389Z,9.62
2023-10-23T04:21:13.164Z,9.64
2023-10-23T04:23:39.086Z,9.64
2023-10-23T04:26:01.151Z,9.64
2023-10-23T04:28:23.863Z,9.63
2023-10-23T04:30:45.592Z,9.63
2023-10-23T04:33:07.329Z,9.61
2023-10-23T04:35:29.942Z,9.60
2023-10-23T04:37:51.697Z,9.56
2023-10-23T04:40:14.055Z,9.54
2023-10-23T04:42:35.849Z,9.49
2023-10-23T04:44:57.599Z,9.48
2023-10-23T04:47:19.323Z,9.43
2023-10-23T04:49:41.471Z,9.40
2023-10-23T04:52:03.709Z,9.35
2023-10-23T04:54:25.448Z,9.30
2023-10-23T04:56:47.855Z,9.31
2023-10-23T04:59:09.977Z,9.29
2023-10-23T05:01:31.775Z,9.30
2023-10-23T05:03:54.564Z,9.31
2023-10-23T05:06:16.458Z,9.31
2023-10-23T05:08:38.177Z,9.30
2023-10-23T05:11:10.662Z,9.31
2023-10-23T05:13:33.482Z,9.30
2023-10-23T05:15:55.340Z,9.29
2023-10-23T05:18:17.058Z,9.27
2023-10-23T05:20:38.755Z,9.25
2023-10-23T05:23:00.477Z,9.20
2023-10-23T05:25:22.172Z,9.18
2023-10-23T05:27:43.997Z,9.16
2023-10-23T05:30:08.019Z,9.15
2023-10-23T05:32:29.803Z,9.15
2023-10-23T05:34:51.611Z,9.11
2023-10-23T05:37:13.900Z,9.12
2023-10-23T05:39:36.491Z,9.13
2023-10-23T05:41:58.312Z,9.14
2023-10-23T05:44:20.117Z,9.13
2023-10-23T05:46:42.754Z,9.13
2023-10-23T05:49:04.564Z,9.14
2023-10-23T05:51:26.372Z,9.09
2023-10-23T05:53:48.163Z,9.07
2023-10-23T05:56:09.928Z,9.07
2023-10-23T05:58:32.899Z,9.07
2023-10-23T06:00:54.838Z,9.07
2023-10-23T06:03:16.766Z,9.09
2023-10-23T06:05:42.869Z,9.14
2023-10-23T06:08:05.242Z,9.16
2023-10-23T06:10:27.058Z,9.17
2023-10-23T06:12:48.801Z,9.16
2023-10-23T06:15:11.375Z,9.18
2023-10-23T06:17:33.270Z,9.18
2023-10-23T06:19:55.074Z,9.18
2023-10-23T06:22:16.961Z,9.20
2023-10-23T06:24:38.738Z,9.23
2023-10-23T06:27:00.779Z,9.22
2023-10-23T06:29:22.527Z,9.24
2023-10-23T06:31:44.412Z,9.25
2023-10-23T06:34:06.151Z,9.25
2023-10-23T06:36:27.963Z,9.24
2023-10-23T06:38:49.751Z,9.28
2023-10-23T06:41:11.494Z,9.29
2023-10-23T06:43:35.034Z,9.31
2023-10-23T06:46:02.357Z,9.32
2023-10-23T06:48:24.672Z,9.28
2023-10-23T06:50:51.135Z,9.25
2023-10-23T06:53:12.889Z,9.24
2023-10-23T06:55:34.646Z,9.26
2023-10-23T06:57:56.427Z,9.26
2023-10-23T07:00:18.448Z,9.26
2023-10-23T07:02:40.280Z,9.25
2023-10-23T07:05:02.994Z,9.24
2023-10-23T07:07:30.026Z,9.24
2023-10-23T07:09:54.534Z,9.26
2023-10-23T07:12:17.528Z,9.25
2023-10-23T07:14:39.621Z,9.29
2023-10-23T07:17:01.420Z,9.35
2023-10-23T07:19:23.208Z,9.38
2023-10-23T07:21:44.901Z,9.43
2023-10-23T07:24:07.394Z,9.49
2023-10-23T07:26:29.115Z,9.53
2023-10-23T07:28:51.456Z,9.58
2023-10-23T07:31:14.517Z,9.62
2023-10-23T07:33:36.540Z,9.65
2023-10-23T07:36:16.450Z,9.72
2023-10-23T07:38:44.961Z,9.74
2023-10-23T07:41:06.728Z,9.78
2023-10-23T07:43:30.346Z,9.80
2023-10-23T07:45:57.286Z,9.83
2023-10-23T07:48:28.592Z,9.83
2023-10-23T07:50:51.277Z,9.85
2023-10-23T07:53:13.137Z,9.87
2023-10-23T07:55:38.100Z,9.93
2023-10-23T07:57:59.937Z,9.96
2023-10-23T08:00:22.488Z,9.99
2023-10-23T08:02:44.317Z,10.04
2023-10-23T08:05:06.518Z,10.07
2023-10-23T08:07:29.334Z,10.15
2023-10-23T08:09:51.089Z,10.21
2023-10-23T08:12:14.559Z,10.26
2023-10-23T08:14:36.677Z,10.27
2023-10-23T08:16:58.473Z,10.31
2023-10-23T08:19:21.493Z,10.37
2023-10-23T08:21:43.350Z,10.42
2023-10-23T08:24:05.860Z,10.47
2023-10-23T08:26:27.702Z,10.54
2023-10-23T08:29:01.905Z,10.61
2023-10-23T08:31:38.625Z,10.67
2023-10-23T08:34:02.885Z,10.75
2023-10-23T08:36:24.889Z,10.89
2023-10-23T08:38:46.776Z,11.04
2023-10-23T08:41:13.472Z,11.18
2023-10-23T08:43:35.195Z,11.29
2023-10-23T08:46:03.713Z,11.39
2023-10-23T08:48:25.641Z,11.51
2023-10-23T08:50:48.159Z,11.61
2023-10-23T08:53:12.555Z,11.69
2023-10-23T08:55:34.565Z,11.78
2023-10-23T08:58:00.802Z,11.90
2023-10-23T09:00:24.012Z,12.03
2023-10-23T09:02:51.633Z,12.15
2023-10-23T09:05:14.357Z,12.29
2023-10-23T09:07:36.645Z,12.42
2023-10-23T09:10:05.877Z,12.54
2023-10-23T09:12:36.990Z,12.61
2023-10-23T09:15:12.659Z,12.68
2023-10-23T09:17:34.404Z,12.72
2023-10-23T09:19:56.258Z,12.77
2023-10-23T09:22:18.091Z,12.82
2023-10-23T09:24:40.090Z,12.85
2023-10-23T09:27:01.923Z,12.93
2023-10-23T09:29:28.974Z,13.04
2023-10-23T09:31:53.033Z,13.12
2023-10-23T09:34:15.125Z,13.20
2023-10-23T09:36:36.943Z,13.28
2023-10-23T09:39:01.753Z,13.37
2023-10-23T09:41:23.517Z,13.45
2023-10-23T09:43:46.648Z,13.53
2023-10-23T09:46:12.897Z,13.61
2023-10-23T09:48:35.025Z,13.68
2023-10-23T09:51:00.753Z,13.75
2023-10-23T09:53:22.859Z,13.78
2023-10-23T09:55:46.823Z,13.86
2023-10-23T09:58:17.840Z,13.93
2023-10-23T10:00:41.275Z,14.01
2023-10-23T10:03:12.604Z,14.08
2023-10-23T10:05:47.226Z,14.12
2023-10-23T10:08:14.821Z,14.17
2023-10-23T10:10:40.849Z,14.22
2023-10-23T10:13:04.572Z,14.30
2023-10-23T10:15:27.844Z,14.33
2023-10-23T10:17:51.150Z,14.41
2023-10-23T10:20:13.260Z,14.46
2023-10-23T10:22:39.519Z,14.52
2023-10-23T10:25:01.701Z,14.56
2023-10-23T10:27:24.512Z,14.59
2023-10-23T10:29:47.895Z,14.66
2023-10-23T10:32:12.946Z,14.67
2023-10-23T10:34:55.666Z,14.69
2023-10-23T10:37:26.209Z,14.74
2023-10-23T10:39:49.386Z,14.81
2023-10-23T10:42:40.634Z,14.86
2023-10-23T10:45:11.092Z,14.95
2023-10-23T10:47:50.613Z,14.98
2023-10-23T10:50:13.250Z,15.03
2023-10-23T10:52:37.937Z,15.06
2023-10-23T10:55:02.166Z,15.09
2023-10-23T10:57:24.056Z,15.16
2023-10-23T10:59:45.745Z,15.19
2023-10-23T11:02:09.349Z,15.24
2023-10-23T11:04:35.160Z,15.26
2023-10-23T11:06:57.034Z,15.29
2023-10-23T11:09:21.922Z,15.30
2023-10-23T11:11:43.790Z,15.30
2023-10-23T11:14:05.928Z,15.31
2023-10-23T11:16:28.566Z,15.35
2023-10-23T11:18:50.426Z,15.38
2023-10-23T11:21:12.142Z,15.41
2023-10-23T11:23:33.913Z,15.43
2023-10-23T11:25:56.154Z,15.45
2023-10-23T11:28:19.251Z,15.49
2023-10-23T11:30:51.176Z,15.52
2023-10-23T11:33:15.049Z,15.55
2023-10-23T11:35:36.776Z,15.58
2023-10-23T11:37:58.534Z,15.62
2023-10-23T11:40:22.406Z,15.62
2023-10-23T11:42:50.244Z,15.65
2023-10-23T11:45:12.524Z,15.68
2023-10-23T11:47:34.303Z,15.71
2023-10-23T11:49:56.123Z,15.76
2023-10-23T11:52:17.992Z,15.82
2023-10-23T11:54:40.226Z,15.87
2023-10-23T11:57:01.891Z,15.86
2023-10-23T11:59:23.949Z,15.85
2023-10-23T12:01:47.130Z,15.79
2023-10-23T12:04:09.365Z,15.82
2023-10-23T12:06:31.297Z,15.84
2023-10-23T12:08:52.983Z,15.89
2023-10-23T12:11:14.911Z,15.95
2023-10-23T12:13:36.957Z,15.98
2023-10-23T12:15:58.719Z,15.98
2023-10-23T12:18:23.378Z,15.97
2023-10-23T12:20:45.184Z,15.97
2023-10-23T12:23:07.345Z,15.98
2023-10-23T12:25:29.144Z,15.97
2023-10-23T12:27:51.085Z,15.99
2023-10-23T12:30:16.862Z,15.99
2023-10-23T12:33:15.261Z,16.01
2023-10-23T12:35:31.605Z,15.97
2023-10-23T12:37:53.379Z,15.97
2023-10-23T12:40:15.203Z,15.96
2023-10-23T12:42:36.983Z,15.96
2023-10-23T12:44:58.676Z,15.98
2023-10-23T12:47:20.495Z,16.00
2023-10-23T12:49:43.554Z,15.99
2023-10-23T12:52:06.165Z,16.01
2023-10-23T12:54:28.121Z,16.00
2023-10-23T12:56:49.869Z,16.01
2023-10-23T12:59:11.575Z,15.98
2023-10-23T13:01:33.458Z,15.95
2023-10-23T13:03:55.459Z,15.90
2023-10-23T13:06:18.860Z,15.90
2023-10-23T13:08:42.022Z,15.89
2023-10-23T13:11:03.875Z,15.89
2023-10-23T13:13:25.652Z,15.87
2023-10-23T13:15:47.455Z,15.86
2023-10-23T13:18:09.405Z,15.87
2023-10-23T13:21:27.667Z,15.88
2023-10-23T13:23:12.976Z,15.86
2023-10-23T13:25:36.057Z,15.90
2023-10-23T13:27:57.842Z,15.89
2023-10-23T13:30:19.669Z,15.86
2023-10-23T13:32:41.565Z,15.85
2023-10-23T13:35:05.547Z,15.83
2023-10-23T13:37:28.166Z,15.79
2023-10-23T13:39:49.905Z,15.76
2023-10-23T13:42:11.619Z,15.72
2023-10-23T13:44:34.019Z,15.72
2023-10-23T13:46:56.009Z,15.71
2023-10-23T13:49:17.861Z,15.70
2023-10-23T13:51:39.673Z,15.71
2023-10-23T13:54:01.595Z,15.69
2023-10-23T13:56:23.428Z,15.67
2023-10-23T13:58:46.275Z,15.65
2023-10-23T14:01:08.008Z,15.65
2023-10-23T14:03:30.106Z,15.71
2023-10-23T14:05:51.950Z,15.72
2023-10-23T14:08:13.687Z,15.75
2023-10-23T14:10:35.542Z,15.79
2023-10-23T14:12:57.900Z,15.83
2023-10-23T14:15:21.591Z,15.88
2023-10-23T14:17:43.542Z,15.90
2023-10-23T14:20:07.311Z,15.95
2023-10-23T14:22:29.249Z,15.96
2023-10-23T14:24:51.077Z,15.96
2023-10-23T14:27:13.007Z,15.96
2023-10-23T14:29:34.900Z,15.97
2023-10-23T14:31:56.704Z,15.95
2023-10-23T14:34:18.572Z,15.89
2023-10-23T14:36:40.405Z,15.84
2023-10-23T14:39:02.174Z,15.81
2023-10-23T14:41:23.969Z,15.82
2023-10-23T14:43:45.665Z,15.81
2023-10-23T14:46:14.442Z,15.79
2023-10-23T14:48:36.245Z,15.78
2023-10-23T14:50:58.407Z,15.75
2023-10-23T14:53:20.379Z,15.69
2023-10-23T14:55:42.937Z,15.65
2023-10-23T14:58:04.819Z,15.62
2023-10-23T15:00:26.894Z,15.59
2023-10-23T15:02:49.090Z,15.56
2023-10-23T15:05:10.923Z,15.49
2023-10-23T15:07:33.062Z,15.46
2023-10-23T15:09:55.928Z,15.43
2023-10-23T15:12:17.789Z,15.38
2023-10-23T15:14:39.595Z,15.36
2023-10-23T15:17:01.362Z,15.34
2023-10-23T15:19:23.381Z,15.32
2023-10-23T15:21:45.214Z,15.28
2023-10-23T15:24:10.916Z,15.20
2023-10-23T15:26:32.661Z,15.17
2023-10-23T15:28:54.451Z,15.14
2023-10-23T15:31:16.551Z,15.09
2023-10-23T15:33:38.253Z,15.11
2023-10-23T15:36:01.512Z,15.08
2023-10-23T15:38:26.672Z,15.06
2023-10-23T15:40:49.994Z,15.02
2023-10-23T15:43:11.705Z,14.98
2023-10-23T15:45:38.537Z,15.00
2023-10-23T15:48:00.960Z,14.98
2023-10-23T15:50:22.939Z,14.96
2023-10-23T15:52:44.729Z,14.93
2023-10-23T15:55:07.027Z,14.91
2023-10-23T15:57:28.765Z,14.87
2023-10-23T15:59:50.678Z,14.86
2023-10-23T16:02:12.631Z,14.82
2023-10-23T16:04:34.509Z,14.83
2023-10-23T16:06:56.358Z,14.83
2023-10-23T16:09:28.065Z,14.81
2023-10-23T16:11:50.739Z,14.76
2023-10-23T16:14:12.843Z,14.73
2023-10-23T16:16:35.851Z,14.71
2023-10-23T16:18:58.028Z,14.68
2023-10-23T16:21:19.950Z,14.67
2023-10-23T16:23:43.092Z,14.66
2023-10-23T16:26:05.245Z,14.64
2023-10-23T16:28:27.474Z,14.62
2023-10-23T16:30:50.053Z,14.61
2023-10-23T16:33:12.249Z,14.60
2023-10-23T16:35:38.143Z,14.59
2023-10-23T16:37:59.918Z,14.58
2023-10-23T16:40:22.348Z,14.55
2023-10-23T16:42:47.386Z,14.55
2023-10-23T16:45:09.800Z,14.55
2023-10-23T16:47:31.894Z,14.52
2023-10-23T16:49:54.700Z,14.51
2023-10-23T16:52:16.820Z,14.48
2023-10-23T16:54:38.855Z,14.47
2023-10-23T16:57:00.796Z,14.46
2023-10-23T16:59:22.514Z,14.43
2023-10-23T17:01:44.375Z,14.41
2023-10-23T17:04:06.645Z,14.37
2023-10-23T17:06:28.357Z,14.35
2023-10-23T17:08:50.233Z,14.32
2023-10-23T17:11:12.377Z,14.30
2023-10-23T17:13:34.336Z,14.26
2023-10-23T17:15:56.118Z,14.23
2023-10-23T17:18:18.006Z,14.21
2023-10-23T17:20:42.235Z,14.15
2023-10-23T17:23:04.612Z,14.14
2023-10-23T17:25:26.498Z,14.08
2023-10-23T17:27:50.695Z,14.08
2023-10-23T17:30:13.338Z,14.03
2023-10-23T17:32:36.352Z,14.02
2023-10-23T17:34:58.241Z,14.02
2023-10-23T17:37:19.985Z,14.01
2023-10-23T17:39:42.003Z,14.01
2023-10-23T17:42:04.815Z,14.02
2023-10-23T17:44:28.006Z,13.98
2023-10-23T17:46:49.823Z,13.94
2023-10-23T17:49:12.211Z,13.91
2023-10-23T17:51:35.476Z,13.88
2023-10-23T17:54:05.451Z,13.86
2023-10-23T17:56:27.968Z,13.87
2023-10-23T17:58:50.159Z,13.86
2023-10-23T18:01:14.216Z,13.84
2023-10-23T18:03:36.948Z,13.86
2023-10-23T18:06:00.044Z,13.84
2023-10-23T18:08:21.732Z,13.83
2023-10-23T18:10:43.510Z,13.81
2023-10-23T18:13:05.244Z,13.79
2023-10-23T18:15:27.044Z,13.81
2023-10-23T18:17:48.989Z,13.79
2023-10-23T18:20:11.865Z,13.79
2023-10-23T18:22:33.688Z,13.77
2023-10-23T18:24:56.142Z,13.76
2023-10-23T18:27:18.071Z,13.78
2023-10-23T18:29:39.886Z,13.77
2023-10-23T18:32:01.734Z,13.76
2023-10-23T18:34:23.513Z,13.77
2023-10-23T18:36:45.821Z,13.76
2023-10-23T18:39:07.689Z,13.76
2023-10-23T18:41:29.654Z,13.74
2023-10-23T18:43:51.441Z,13.73
2023-10-23T18:46:14.720Z,13.70
2023-10-23T18:48:37.305Z,13.72
2023-10-23T18:51:02.114Z,13.69
2023-10-23T18:53:23.892Z,13.73
2023-10-23T18:55:45.667Z,13.72
2023-10-23T18:58:07.389Z,13.71
2023-10-23T19:00:29.362Z,13.67
2023-10-23T19:02:52.497Z,13.66
2023-10-23T19:05:14.299Z,13.64
2023-10-23T19:07:36.505Z,13.63
2023-10-23T19:09:59.465Z,13.63
2023-10-23T19:12:21.248Z,13.63
2023-10-23T19:14:43.145Z,13.63
2023-10-23T19:17:06.322Z,13.62
2023-10-23T19:19:29.323Z,13.60
2023-10-23T19:21:51.018Z,13.58
2023-10-23T19:24:15.443Z,13.60
2023-10-23T19:26:37.570Z,13.59
2023-10-23T19:29:00.271Z,13.56
2023-10-23T19:31:26.135Z,13.55
2023-10-23T19:33:48.512Z,13.53
2023-10-23T19:36:11.800Z,13.52
2023-10-23T19:38:33.896Z,13.53
2023-10-23T19:41:02.505Z,13.51
2023-10-23T19:43:32.275Z,13.52
2023-10-23T19:45:55.960Z,13.50
2023-10-23T19:48:18.345Z,13.47
2023-10-23T19:50:47.490Z,13.45
2023-10-23T19:53:11.448Z,13.44
2023-10-23T19:55:43.129Z,13.44
2023-10-23T19:58:08.476Z,13.45
2023-10-23T20:00:30.917Z,13.46
2023-10-23T20:02:52.725Z,13.44
2023-10-23T20:05:14.492Z,13.43
2023-10-23T20:07:36.246Z,13.44
2023-10-23T20:09:58.014Z,13.44
2023-10-23T20:12:19.779Z,13.42
2023-10-23T20:14:41.663Z,13.40
2023-10-23T20:17:03.691Z,13.37
2023-10-23T20:19:25.621Z,13.36
2023-10-23T20:21:47.475Z,13.36
2023-10-23T20:24:09.294Z,13.35
2023-10-23T20:26:31.092Z,13.34
2023-10-23T20:28:52.837Z,13.32
2023-10-23T20:31:19.217Z,13.31
2023-10-23T20:33:41.531Z,13.32
2023-10-23T20:36:03.414Z,13.30
2023-10-23T20:38:25.329Z,13.31
2023-10-23T20:40:47.185Z,13.27
2023-10-23T20:43:08.979Z,13.28
2023-10-23T20:45:30.885Z,13.29
2023-10-23T20:47:52.617Z,13.27
2023-10-23T20:50:14.462Z,13.27
2023-10-23T20:52:36.297Z,13.24
2023-10-23T20:54:58.623Z,13.21
2023-10-23T20:57:20.458Z,13.19
2023-10-23T20:59:42.231Z,13.18
2023-10-23T21:02:04.150Z,13.15
2023-10-23T21:04:26.132Z,13.13
2023-10-23T21:06:47.907Z,13.11
2023-10-23T21:09:09.639Z,13.11
2023-10-23T21:11:33.316Z,13.11
2023-10-23T21:13:55.073Z,13.09
2023-10-23T21:16:16.974Z,13.07
2023-10-23T21:18:38.669Z,13.07
2023-10-23T21:21:00.601Z,13.06
2023-10-23T21:23:22.438Z,13.06
2023-10-23T21:25:44.258Z,13.03
2023-10-23T21:28:06.170Z,13.00
2023-10-23T21:30:27.999Z,12.99
2023-10-23T21:32:50.760Z,12.96
2023-10-23T21:35:12.538Z,12.93
2023-10-23T21:37:34.309Z,12.91
2023-10-23T21:39:56.248Z,12.89
2023-10-23T21:42:18.083Z,12.88
2023-10-23T21:44:39.928Z,12.88
2023-10-23T21:47:01.943Z,12.89
2023-10-23T21:49:23.733Z,12.87
2023-10-23T21:51:45.923Z,12.88
2023-10-23T21:54:08.348Z,12.88
2023-10-23T21:56:43.374Z,12.88
2023-10-23T21:59:19.030Z,12.88
2023-10-23T22:01:41.646Z,12.87
2023-10-23T22:04:04.073Z,12.89
2023-10-23T22:06:26.355Z,12.88
2023-10-23T22:08:48.703Z,12.90
2023-10-23T22:11:11.903Z,12.93
2023-10-23T22:13:34.650Z,12.95
2023-10-23T22:15:56.594Z,12.99
2023-10-23T22:18:18.528Z,13.00
2023-10-23T22:20:40.425Z,13.00
2023-10-23T22:23:02.224Z,13.02
2023-10-23T22:25:23.917Z,13.03
2023-10-23T22:27:45.649Z,13.03
2023-10-23T22:30:08.284Z,13.00
2023-10-23T22:32:29.961Z,13.01
2023-10-23T22:34:51.695Z,13.02
2023-10-23T22:38:05.637Z,13.00
2023-10-23T22:39:55.283Z,13.04
2023-10-23T22:42:17.014Z,13.07
2023-10-23T22:44:39.679Z,13.10
2023-10-23T22:47:02.052Z,13.10
2023-10-23T22:49:24.247Z,13.13
2023-10-23T22:51:46.332Z,13.16
2023-10-23T22:54:08.861Z,13.17
2023-10-23T22:56:32.633Z,13.17
2023-10-23T22:59:04.279Z,13.21
2023-10-23T23:01:26.531Z,13.21
2023-10-23T23:03:52.275Z,13.18
2023-10-23T23:06:18.801Z,13.13
2023-10-23T23:08:43.664Z,13.14
2023-10-23T23:11:06.310Z,13.14
2023-10-23T23:13:28.396Z,13.12
2023-10-23T23:15:52.599Z,13.12
2023-10-23T23:18:20.065Z,13.12
2023-10-23T23:20:44.911Z,13.17
2023-10-23T23:23:06.691Z,13.20
2023-10-23T23:25:28.431Z,13.20
2023-10-23T23:27:50.245Z,13.20
2023-10-23T23:30:12.237Z,13.20
2023-10-23T23:32:34.084Z,13.16
2023-10-23T23:34:56.096Z,13.14
2023-10-23T23:37:17.905Z,13.11
2023-10-23T23:39:41.084Z,13.13
2023-10-23T23:42:03.321Z,13.18
2023-10-23T23:44:25.070Z,13.21
2023-10-23T23:46:46.854Z,13.23
2023-10-23T23:49:09.140Z,13.26
2023-10-23T23:51:31.196Z,13.25
2023-10-23T23:53:52.901Z,13.23
2023-10-23T23:56:14.728Z,13.24
2023-10-23T23:58:36.601Z,13.24
